This is the latest recevied weather packets stored in our database for station/object SR7U-1. If no packets are shown the sender has not sent any weather packets the latest 10 day(s).
| Time | Temp. | Humidity | Pressure | Rain* | Wind** | Luminosity | Snow |
|---|---|---|---|---|---|---|---|
| 1777940085 | 10.56° C | 69% | 1012.1 hPa | - | - | - | - |
| 1777939295 | 11.11° C | 68% | 1012.2 hPa | - | - | - | - |
| 1777938510 | 11.11° C | 69% | 1012.2 hPa | - | - | - | - |
| 1777937750 | 11.11° C | 68% | 1012.2 hPa | - | - | - | - |
| 1777936960 | 11.11° C | 68% | 1012.4 hPa | - | - | - | - |
| 1777936204 | 13.89° C | 57% | 1012.3 hPa | - | - | - | - |
| 1777935320 | 13.33° C | 58% | 1012.4 hPa | - | - | - | - |
| 1777934550 | 12.78° C | 61% | 1012.3 hPa | - | - | - | - |
| 1777933670 | 12.78° C | 66% | 1012.5 hPa | - | - | - | - |
| 1777932820 | 13.33° C | 63% | 1012.5 hPa | - | - | - | - |
| 1777932035 | 13.89° C | 61% | 1012.5 hPa | - | - | - | - |
| 1777931310 | 14.44° C | 59% | 1012.4 hPa | - | - | - | - |
| 1777930420 | 14.44° C | 55% | 1012.5 hPa | - | - | - | - |
| 1777929600 | 15° C | 51% | 1012.5 hPa | - | - | - | - |
| 1777928840 | 15° C | 51% | 1012.5 hPa | - | - | - | - |
| 1777928053 | 15.56° C | 54% | 1012.5 hPa | - | - | - | - |
| 1777927245 | 16.11° C | 47% | 1012.5 hPa | - | - | - | - |
| 1777926370 | 15.56° C | 46% | 1012.5 hPa | - | - | - | - |
| 1777925535 | 15° C | 52% | 1012.4 hPa | - | - | - | - |
| 1777924695 | 15.56° C | 45% | 1012.4 hPa | - | - | - | - |
| 1777923965 | 15° C | 56% | 1011.9 hPa | - | - | - | - |
| 1777923230 | 15.56° C | 51% | 1012.2 hPa | - | - | - | - |
| 1777922450 | 15.56° C | 50% | 1012.3 hPa | - | - | - | - |
| 1777921610 | 15.56° C | 54% | 1012.2 hPa | - | - | - | - |
| 1777920850 | 16.11° C | 52% | 1012.2 hPa | - | - | - | - |
* Rain since midnight (hover to see other rain measurements)
** Current wind speed in m/s (hover to see current wind gust speed)